sensor_id;sensor_type;location;lat;lon;timestamp;temperature;humidity
83685;DHT22;73666;51.304;5.776;2023-10-31T00:01:30;10.40;80.40
83685;DHT22;73666;51.304;5.776;2023-10-31T00:06:30;10.30;80.40
83685;DHT22;73666;51.304;5.776;2023-10-31T00:11:31;10.30;80.30
83685;DHT22;73666;51.304;5.776;2023-10-31T00:16:32;10.30;80.40
83685;DHT22;73666;51.304;5.776;2023-10-31T00:21:33;10.20;80.50
83685;DHT22;73666;51.304;5.776;2023-10-31T00:26:33;10.20;80.50
83685;DHT22;73666;51.304;5.776;2023-10-31T00:31:34;10.20;80.50
83685;DHT22;73666;51.304;5.776;2023-10-31T00:36:35;10.20;80.50
83685;DHT22;73666;51.304;5.776;2023-10-31T00:41:36;10.20;80.50
83685;DHT22;73666;51.304;5.776;2023-10-31T00:46:37;10.20;80.50
83685;DHT22;73666;51.304;5.776;2023-10-31T00:51:38;10.20;80.50
83685;DHT22;73666;51.304;5.776;2023-10-31T00:56:41;10.20;80.50
83685;DHT22;73666;51.304;5.776;2023-10-31T01:01:42;10.20;80.50
83685;DHT22;73666;51.304;5.776;2023-10-31T01:06:44;10.20;80.60
83685;DHT22;73666;51.304;5.776;2023-10-31T01:11:44;10.20;80.60
83685;DHT22;73666;51.304;5.776;2023-10-31T01:16:45;10.20;80.50
83685;DHT22;73666;51.304;5.776;2023-10-31T01:21:46;10.20;80.60
83685;DHT22;73666;51.304;5.776;2023-10-31T01:26:47;10.10;80.50
83685;DHT22;73666;51.304;5.776;2023-10-31T01:31:47;10.20;80.50
83685;DHT22;73666;51.304;5.776;2023-10-31T01:36:48;10.20;80.50
83685;DHT22;73666;51.304;5.776;2023-10-31T01:41:49;10.20;80.50
83685;DHT22;73666;51.304;5.776;2023-10-31T01:46:49;10.10;80.50
83685;DHT22;73666;51.304;5.776;2023-10-31T01:51:50;10.20;80.50
83685;DHT22;73666;51.304;5.776;2023-10-31T01:56:51;10.20;80.50
83685;DHT22;73666;51.304;5.776;2023-10-31T02:01:57;10.20;80.40
83685;DHT22;73666;51.304;5.776;2023-10-31T02:06:58;10.20;80.40
83685;DHT22;73666;51.304;5.776;2023-10-31T02:11:58;10.20;80.50
83685;DHT22;73666;51.304;5.776;2023-10-31T02:16:59;10.20;80.50
83685;DHT22;73666;51.304;5.776;2023-10-31T02:22:00;10.20;80.50
83685;DHT22;73666;51.304;5.776;2023-10-31T02:27:02;10.20;80.50
83685;DHT22;73666;51.304;5.776;2023-10-31T02:32:03;10.20;80.50
83685;DHT22;73666;51.304;5.776;2023-10-31T02:37:05;10.20;80.60
83685;DHT22;73666;51.304;5.776;2023-10-31T02:42:06;10.20;80.50
83685;DHT22;73666;51.304;5.776;2023-10-31T02:47:07;10.20;80.50
83685;DHT22;73666;51.304;5.776;2023-10-31T02:52:07;10.20;80.60
83685;DHT22;73666;51.304;5.776;2023-10-31T02:57:08;10.20;80.60
83685;DHT22;73666;51.304;5.776;2023-10-31T03:02:10;10.20;80.60
83685;DHT22;73666;51.304;5.776;2023-10-31T03:07:12;10.20;80.60
83685;DHT22;73666;51.304;5.776;2023-10-31T03:12:13;10.20;80.70
83685;DHT22;73666;51.304;5.776;2023-10-31T03:17:13;10.20;80.70
83685;DHT22;73666;51.304;5.776;2023-10-31T03:22:14;10.20;80.70
83685;DHT22;73666;51.304;5.776;2023-10-31T03:27:15;10.20;80.70
83685;DHT22;73666;51.304;5.776;2023-10-31T03:32:16;10.20;80.70
83685;DHT22;73666;51.304;5.776;2023-10-31T03:37:18;10.20;80.70
83685;DHT22;73666;51.304;5.776;2023-10-31T03:42:19;10.20;80.70
83685;DHT22;73666;51.304;5.776;2023-10-31T03:47:20;10.30;80.70
83685;DHT22;73666;51.304;5.776;2023-10-31T03:52:21;10.30;80.80
83685;DHT22;73666;51.304;5.776;2023-10-31T03:57:22;10.30;80.70
83685;DHT22;73666;51.304;5.776;2023-10-31T04:02:23;10.30;80.70
83685;DHT22;73666;51.304;5.776;2023-10-31T04:07:23;10.30;80.80
83685;DHT22;73666;51.304;5.776;2023-10-31T04:12:24;10.30;80.80
83685;DHT22;73666;51.304;5.776;2023-10-31T04:17:25;10.20;80.80
83685;DHT22;73666;51.304;5.776;2023-10-31T04:22:26;10.20;80.80
83685;DHT22;73666;51.304;5.776;2023-10-31T04:27:26;10.20;80.80
83685;DHT22;73666;51.304;5.776;2023-10-31T04:32:27;10.20;80.80
83685;DHT22;73666;51.304;5.776;2023-10-31T04:37:28;10.20;80.80
83685;DHT22;73666;51.304;5.776;2023-10-31T04:42:29;10.20;80.90
83685;DHT22;73666;51.304;5.776;2023-10-31T04:47:32;10.10;80.90
83685;DHT22;73666;51.304;5.776;2023-10-31T04:52:32;10.10;80.80
83685;DHT22;73666;51.304;5.776;2023-10-31T04:57:33;10.10;80.90
83685;DHT22;73666;51.304;5.776;2023-10-31T05:02:34;10.10;81.00
83685;DHT22;73666;51.304;5.776;2023-10-31T05:07:34;10.10;81.00
83685;DHT22;73666;51.304;5.776;2023-10-31T05:17:37;24.00;50.00
83685;DHT22;73666;51.304;5.776;2023-10-31T05:22:38;10.20;81.00
83685;DHT22;73666;51.304;5.776;2023-10-31T05:27:40;10.20;80.90
83685;DHT22;73666;51.304;5.776;2023-10-31T05:32:41;10.20;81.00
83685;DHT22;73666;51.304;5.776;2023-10-31T05:37:42;10.20;81.00
83685;DHT22;73666;51.304;5.776;2023-10-31T05:42:43;10.10;81.00
83685;DHT22;73666;51.304;5.776;2023-10-31T05:47:44;10.10;81.00
83685;DHT22;73666;51.304;5.776;2023-10-31T05:52:45;10.10;81.00
83685;DHT22;73666;51.304;5.776;2023-10-31T05:57:45;10.10;81.00
83685;DHT22;73666;51.304;5.776;2023-10-31T06:02:46;10.10;81.10
83685;DHT22;73666;51.304;5.776;2023-10-31T06:07:47;10.00;81.00
83685;DHT22;73666;51.304;5.776;2023-10-31T06:12:48;10.00;81.10
83685;DHT22;73666;51.304;5.776;2023-10-31T06:17:49;10.00;81.00
83685;DHT22;73666;51.304;5.776;2023-10-31T06:22:49;10.00;81.00
83685;DHT22;73666;51.304;5.776;2023-10-31T06:27:50;9.90;81.00
83685;DHT22;73666;51.304;5.776;2023-10-31T06:32:52;9.80;81.10
83685;DHT22;73666;51.304;5.776;2023-10-31T06:37:55;9.80;81.10
83685;DHT22;73666;51.304;5.776;2023-10-31T06:42:57;9.80;81.10
83685;DHT22;73666;51.304;5.776;2023-10-31T06:47:58;9.70;81.10
83685;DHT22;73666;51.304;5.776;2023-10-31T06:52:58;9.70;81.20
83685;DHT22;73666;51.304;5.776;2023-10-31T06:57:59;9.70;81.00
83685;DHT22;73666;51.304;5.776;2023-10-31T07:03:00;9.60;81.10
83685;DHT22;73666;51.304;5.776;2023-10-31T07:08:05;9.70;81.20
83685;DHT22;73666;51.304;5.776;2023-10-31T07:13:06;9.70;81.10
83685;DHT22;73666;51.304;5.776;2023-10-31T07:18:07;9.70;81.10
83685;DHT22;73666;51.304;5.776;2023-10-31T07:23:08;9.70;81.10
83685;DHT22;73666;51.304;5.776;2023-10-31T07:28:09;9.80;81.00
83685;DHT22;73666;51.304;5.776;2023-10-31T07:33:10;9.80;80.90
83685;DHT22;73666;51.304;5.776;2023-10-31T07:38:11;9.80;80.90
83685;DHT22;73666;51.304;5.776;2023-10-31T07:43:11;9.90;80.80
83685;DHT22;73666;51.304;5.776;2023-10-31T07:48:13;9.90;80.90
83685;DHT22;73666;51.304;5.776;2023-10-31T07:53:14;10.00;80.80
83685;DHT22;73666;51.304;5.776;2023-10-31T07:58:14;10.00;80.70
83685;DHT22;73666;51.304;5.776;2023-10-31T08:03:15;10.10;80.80
83685;DHT22;73666;51.304;5.776;2023-10-31T08:08:16;10.20;80.50
83685;DHT22;73666;51.304;5.776;2023-10-31T08:13:17;10.20;80.50
83685;DHT22;73666;51.304;5.776;2023-10-31T08:18:19;10.20;80.50
83685;DHT22;73666;51.304;5.776;2023-10-31T08:23:20;10.30;80.40
83685;DHT22;73666;51.304;5.776;2023-10-31T08:28:24;10.30;80.40
83685;DHT22;73666;51.304;5.776;2023-10-31T08:33:25;10.30;80.50
83685;DHT22;73666;51.304;5.776;2023-10-31T08:38:25;10.30;80.40
83685;DHT22;73666;51.304;5.776;2023-10-31T08:43:28;10.40;80.40
83685;DHT22;73666;51.304;5.776;2023-10-31T08:48:29;10.80;80.00
83685;DHT22;73666;51.304;5.776;2023-10-31T08:53:30;11.00;79.60
83685;DHT22;73666;51.304;5.776;2023-10-31T08:58:31;11.40;79.30
83685;DHT22;73666;51.304;5.776;2023-10-31T09:03:32;11.70;78.90
83685;DHT22;73666;51.304;5.776;2023-10-31T09:08:32;11.80;78.80
83685;DHT22;73666;51.304;5.776;2023-10-31T09:13:34;11.70;78.60
83685;DHT22;73666;51.304;5.776;2023-10-31T09:18:35;11.60;78.90
83685;DHT22;73666;51.304;5.776;2023-10-31T09:23:36;11.70;78.90
83685;DHT22;73666;51.304;5.776;2023-10-31T09:28:36;11.70;78.80
83685;DHT22;73666;51.304;5.776;2023-10-31T09:33:39;11.50;78.90
83685;DHT22;73666;51.304;5.776;2023-10-31T09:38:40;11.50;78.90
83685;DHT22;73666;51.304;5.776;2023-10-31T09:43:41;11.40;79.20
83685;DHT22;73666;51.304;5.776;2023-10-31T09:48:43;11.30;79.20
83685;DHT22;73666;51.304;5.776;2023-10-31T09:53:44;11.20;79.30
83685;DHT22;73666;51.304;5.776;2023-10-31T09:58:46;11.30;79.40
83685;DHT22;73666;51.304;5.776;2023-10-31T10:03:47;11.40;79.20
83685;DHT22;73666;51.304;5.776;2023-10-31T10:08:49;11.50;78.90
83685;DHT22;73666;51.304;5.776;2023-10-31T10:13:52;11.60;78.70
83685;DHT22;73666;51.304;5.776;2023-10-31T10:18:53;11.50;78.90
83685;DHT22;73666;51.304;5.776;2023-10-31T10:23:57;11.70;78.80
83685;DHT22;73666;51.304;5.776;2023-10-31T10:28:58;11.90;78.50
83685;DHT22;73666;51.304;5.776;2023-10-31T10:33:59;12.00;78.40
83685;DHT22;73666;51.304;5.776;2023-10-31T10:39:02;12.20;78.20
83685;DHT22;73666;51.304;5.776;2023-10-31T10:44:07;12.20;78.00
83685;DHT22;73666;51.304;5.776;2023-10-31T10:49:07;12.30;78.10
83685;DHT22;73666;51.304;5.776;2023-10-31T10:54:15;12.50;77.90
83685;DHT22;73666;51.304;5.776;2023-10-31T10:59:30;12.70;77.30
83685;DHT22;73666;51.304;5.776;2023-10-31T11:04:35;12.50;77.80
83685;DHT22;73666;51.304;5.776;2023-10-31T11:09:37;12.70;77.90
83685;DHT22;73666;51.304;5.776;2023-10-31T11:14:39;12.90;77.60
83685;DHT22;73666;51.304;5.776;2023-10-31T11:19:41;13.10;77.30
83685;DHT22;73666;51.304;5.776;2023-10-31T11:24:42;13.00;77.10
83685;DHT22;73666;51.304;5.776;2023-10-31T11:29:43;13.00;77.20
83685;DHT22;73666;51.304;5.776;2023-10-31T11:34:43;13.20;77.00
83685;DHT22;73666;51.304;5.776;2023-10-31T11:45:25;13.30;76.80
83685;DHT22;73666;51.304;5.776;2023-10-31T11:50:29;13.90;76.10
83685;DHT22;73666;51.304;5.776;2023-10-31T11:55:36;14.50;75.30
83685;DHT22;73666;51.304;5.776;2023-10-31T12:00:37;14.70;74.90
83685;DHT22;73666;51.304;5.776;2023-10-31T12:05:38;14.60;74.80
83685;DHT22;73666;51.304;5.776;2023-10-31T12:10:38;14.30;74.50
83685;DHT22;73666;51.304;5.776;2023-10-31T12:15:51;14.30;75.10
83685;DHT22;73666;51.304;5.776;2023-10-31T12:20:53;14.60;74.50
83685;DHT22;73666;51.304;5.776;2023-10-31T12:25:53;14.70;74.70
83685;DHT22;73666;51.304;5.776;2023-10-31T12:30:55;14.80;74.40
83685;DHT22;73666;51.304;5.776;2023-10-31T12:35:59;14.60;74.60
83685;DHT22;73666;51.304;5.776;2023-10-31T12:41:00;14.50;74.70
83685;DHT22;73666;51.304;5.776;2023-10-31T12:46:24;14.40;74.70
83685;DHT22;73666;51.304;5.776;2023-10-31T12:51:25;14.30;74.30
83685;DHT22;73666;51.304;5.776;2023-10-31T12:56:38;14.20;74.60
83685;DHT22;73666;51.304;5.776;2023-10-31T13:01:43;14.10;74.10
83685;DHT22;73666;51.304;5.776;2023-10-31T13:06:54;14.00;74.30
83685;DHT22;73666;51.304;5.776;2023-10-31T13:12:00;13.70;74.60
83685;DHT22;73666;51.304;5.776;2023-10-31T13:17:01;13.50;75.10
83685;DHT22;73666;51.304;5.776;2023-10-31T13:22:03;13.30;75.40
83685;DHT22;73666;51.304;5.776;2023-10-31T13:27:03;13.50;75.30
83685;DHT22;73666;51.304;5.776;2023-10-31T13:32:04;13.70;74.90
83685;DHT22;73666;51.304;5.776;2023-10-31T13:37:05;13.90;74.40
83685;DHT22;73666;51.304;5.776;2023-10-31T13:42:07;13.80;74.30
83685;DHT22;73666;51.304;5.776;2023-10-31T13:47:07;13.70;74.60
83685;DHT22;73666;51.304;5.776;2023-10-31T13:52:08;13.70;74.50
83685;DHT22;73666;51.304;5.776;2023-10-31T13:57:09;13.50;74.80
83685;DHT22;73666;51.304;5.776;2023-10-31T14:02:10;13.50;74.80
83685;DHT22;73666;51.304;5.776;2023-10-31T14:07:17;13.30;75.10
83685;DHT22;73666;51.304;5.776;2023-10-31T14:12:20;13.10;75.30
83685;DHT22;73666;51.304;5.776;2023-10-31T14:17:21;13.00;75.50
83685;DHT22;73666;51.304;5.776;2023-10-31T14:22:23;13.00;75.30
83685;DHT22;73666;51.304;5.776;2023-10-31T14:27:24;13.00;75.00
83685;DHT22;73666;51.304;5.776;2023-10-31T14:32:24;13.00;75.00
83685;DHT22;73666;51.304;5.776;2023-10-31T14:37:25;13.00;75.10
83685;DHT22;73666;51.304;5.776;2023-10-31T14:42:31;12.90;75.30
83685;DHT22;73666;51.304;5.776;2023-10-31T14:47:32;12.80;75.50
83685;DHT22;73666;51.304;5.776;2023-10-31T14:52:33;12.60;75.70
83685;DHT22;73666;51.304;5.776;2023-10-31T14:57:34;12.50;76.10
83685;DHT22;73666;51.304;5.776;2023-10-31T15:02:35;12.30;76.40
83685;DHT22;73666;51.304;5.776;2023-10-31T15:07:36;12.20;76.60
83685;DHT22;73666;51.304;5.776;2023-10-31T15:12:38;12.10;76.90
83685;DHT22;73666;51.304;5.776;2023-10-31T15:17:38;12.00;77.00
83685;DHT22;73666;51.304;5.776;2023-10-31T15:22:39;11.90;77.10
83685;DHT22;73666;51.304;5.776;2023-10-31T15:27:40;11.90;77.20
83685;DHT22;73666;51.304;5.776;2023-10-31T15:32:41;11.90;77.30
83685;DHT22;73666;51.304;5.776;2023-10-31T15:37:43;11.90;77.40
83685;DHT22;73666;51.304;5.776;2023-10-31T15:42:44;12.00;77.40
83685;DHT22;73666;51.304;5.776;2023-10-31T15:47:45;12.10;77.40
83685;DHT22;73666;51.304;5.776;2023-10-31T15:52:46;12.10;77.40
83685;DHT22;73666;51.304;5.776;2023-10-31T15:57:47;12.10;77.50
83685;DHT22;73666;51.304;5.776;2023-10-31T16:02:47;12.00;77.50
83685;DHT22;73666;51.304;5.776;2023-10-31T16:07:48;12.00;77.60
83685;DHT22;73666;51.304;5.776;2023-10-31T16:12:49;11.90;77.70
83685;DHT22;73666;51.304;5.776;2023-10-31T16:17:50;11.80;77.80
83685;DHT22;73666;51.304;5.776;2023-10-31T16:22:50;11.70;78.00
83685;DHT22;73666;51.304;5.776;2023-10-31T16:27:51;11.70;78.10
83685;DHT22;73666;51.304;5.776;2023-10-31T16:32:52;11.60;78.10
83685;DHT22;73666;51.304;5.776;2023-10-31T16:37:53;11.60;78.20
83685;DHT22;73666;51.304;5.776;2023-10-31T16:42:55;11.50;78.20
83685;DHT22;73666;51.304;5.776;2023-10-31T16:47:56;11.50;78.40
83685;DHT22;73666;51.304;5.776;2023-10-31T16:52:57;11.40;78.40
83685;DHT22;73666;51.304;5.776;2023-10-31T16:57:58;11.40;78.40
83685;DHT22;73666;51.304;5.776;2023-10-31T17:02:58;11.40;78.40
83685;DHT22;73666;51.304;5.776;2023-10-31T17:07:59;11.30;78.50
83685;DHT22;73666;51.304;5.776;2023-10-31T17:13:00;11.10;78.70
83685;DHT22;73666;51.304;5.776;2023-10-31T17:18:00;11.10;78.80
83685;DHT22;73666;51.304;5.776;2023-10-31T17:23:01;11.20;78.80
83685;DHT22;73666;51.304;5.776;2023-10-31T17:28:06;11.20;78.70
83685;DHT22;73666;51.304;5.776;2023-10-31T17:33:06;11.30;78.70
83685;DHT22;73666;51.304;5.776;2023-10-31T17:38:07;11.30;78.70
83685;DHT22;73666;51.304;5.776;2023-10-31T17:43:08;11.20;78.70
83685;DHT22;73666;51.304;5.776;2023-10-31T17:48:09;11.30;78.80
83685;DHT22;73666;51.304;5.776;2023-10-31T17:53:10;11.10;78.80
83685;DHT22;73666;51.304;5.776;2023-10-31T17:58:11;11.10;79.00
83685;DHT22;73666;51.304;5.776;2023-10-31T18:03:12;11.10;79.00
83685;DHT22;73666;51.304;5.776;2023-10-31T18:08:13;11.10;79.00
83685;DHT22;73666;51.304;5.776;2023-10-31T18:13:14;11.10;79.00
83685;DHT22;73666;51.304;5.776;2023-10-31T18:18:19;11.10;79.10
83685;DHT22;73666;51.304;5.776;2023-10-31T18:23:20;11.10;79.10
83685;DHT22;73666;51.304;5.776;2023-10-31T18:28:21;11.20;79.10
83685;DHT22;73666;51.304;5.776;2023-10-31T18:33:23;11.20;79.20
83685;DHT22;73666;51.304;5.776;2023-10-31T18:38:23;11.20;79.10
83685;DHT22;73666;51.304;5.776;2023-10-31T18:43:24;11.10;79.10
83685;DHT22;73666;51.304;5.776;2023-10-31T18:48:25;11.10;79.10
83685;DHT22;73666;51.304;5.776;2023-10-31T18:53:26;11.10;79.10
83685;DHT22;73666;51.304;5.776;2023-10-31T18:58:26;11.10;79.30
83685;DHT22;73666;51.304;5.776;2023-10-31T19:03:27;11.10;79.30
83685;DHT22;73666;51.304;5.776;2023-10-31T19:08:28;11.10;79.30
83685;DHT22;73666;51.304;5.776;2023-10-31T19:13:29;11.10;79.30
83685;DHT22;73666;51.304;5.776;2023-10-31T19:18:30;11.00;79.30
83685;DHT22;73666;51.304;5.776;2023-10-31T19:23:30;10.90;79.40
83685;DHT22;73666;51.304;5.776;2023-10-31T19:28:31;10.90;79.40
83685;DHT22;73666;51.304;5.776;2023-10-31T19:33:32;10.80;79.50
83685;DHT22;73666;51.304;5.776;2023-10-31T19:38:32;10.80;79.50
83685;DHT22;73666;51.304;5.776;2023-10-31T19:43:34;10.70;79.60
83685;DHT22;73666;51.304;5.776;2023-10-31T19:48:36;10.60;79.60
83685;DHT22;73666;51.304;5.776;2023-10-31T19:53:37;10.60;79.70
83685;DHT22;73666;51.304;5.776;2023-10-31T19:58:38;10.60;79.70
83685;DHT22;73666;51.304;5.776;2023-10-31T20:03:39;10.60;79.70
83685;DHT22;73666;51.304;5.776;2023-10-31T20:08:40;10.60;79.70
83685;DHT22;73666;51.304;5.776;2023-10-31T20:13:41;10.60;79.70
83685;DHT22;73666;51.304;5.776;2023-10-31T20:18:42;10.60;79.80
83685;DHT22;73666;51.304;5.776;2023-10-31T20:23:43;10.60;79.70
83685;DHT22;73666;51.304;5.776;2023-10-31T20:28:44;10.60;79.70
83685;DHT22;73666;51.304;5.776;2023-10-31T20:33:44;10.60;79.80
83685;DHT22;73666;51.304;5.776;2023-10-31T20:38:45;10.60;79.80
83685;DHT22;73666;51.304;5.776;2023-10-31T20:43:46;10.70;79.90
83685;DHT22;73666;51.304;5.776;2023-10-31T20:48:50;10.70;79.90
83685;DHT22;73666;51.304;5.776;2023-10-31T20:53:51;10.80;79.90
83685;DHT22;73666;51.304;5.776;2023-10-31T20:58:51;10.80;79.80
83685;DHT22;73666;51.304;5.776;2023-10-31T21:03:52;10.80;79.80
83685;DHT22;73666;51.304;5.776;2023-10-31T21:08:53;10.80;79.90
83685;DHT22;73666;51.304;5.776;2023-10-31T21:13:55;10.70;79.90
83685;DHT22;73666;51.304;5.776;2023-10-31T21:18:57;10.70;80.00
83685;DHT22;73666;51.304;5.776;2023-10-31T21:23:59;10.70;80.00
83685;DHT22;73666;51.304;5.776;2023-10-31T21:29:00;10.60;80.00
83685;DHT22;73666;51.304;5.776;2023-10-31T21:34:01;10.60;80.10
83685;DHT22;73666;51.304;5.776;2023-10-31T21:39:02;10.60;80.10
83685;DHT22;73666;51.304;5.776;2023-10-31T21:44:03;10.60;80.10
83685;DHT22;73666;51.304;5.776;2023-10-31T21:49:04;10.70;80.10
83685;DHT22;73666;51.304;5.776;2023-10-31T21:54:07;10.70;80.10
83685;DHT22;73666;51.304;5.776;2023-10-31T21:59:09;10.80;80.00
83685;DHT22;73666;51.304;5.776;2023-10-31T22:04:10;10.80;80.10
83685;DHT22;73666;51.304;5.776;2023-10-31T22:09:11;10.90;80.10
83685;DHT22;73666;51.304;5.776;2023-10-31T22:14:12;10.90;80.00
83685;DHT22;73666;51.304;5.776;2023-10-31T22:19:13;10.90;80.00
83685;DHT22;73666;51.304;5.776;2023-10-31T22:24:14;11.00;80.00
83685;DHT22;73666;51.304;5.776;2023-10-31T22:29:16;11.00;80.00
83685;DHT22;73666;51.304;5.776;2023-10-31T22:34:18;11.00;80.00
83685;DHT22;73666;51.304;5.776;2023-10-31T22:39:20;11.00;80.00
83685;DHT22;73666;51.304;5.776;2023-10-31T22:44:21;11.00;80.10
83685;DHT22;73666;51.304;5.776;2023-10-31T22:49:22;11.00;80.00
83685;DHT22;73666;51.304;5.776;2023-10-31T22:54:24;11.10;80.10
83685;DHT22;73666;51.304;5.776;2023-10-31T22:59:25;11.10;80.00
83685;DHT22;73666;51.304;5.776;2023-10-31T23:04:27;11.10;80.00
83685;DHT22;73666;51.304;5.776;2023-10-31T23:09:28;11.10;80.00
83685;DHT22;73666;51.304;5.776;2023-10-31T23:14:29;11.10;80.00
83685;DHT22;73666;51.304;5.776;2023-10-31T23:19:30;11.10;79.90
83685;DHT22;73666;51.304;5.776;2023-10-31T23:24:30;11.10;80.00
83685;DHT22;73666;51.304;5.776;2023-10-31T23:29:31;11.10;80.00
83685;DHT22;73666;51.304;5.776;2023-10-31T23:34:32;11.10;80.00
83685;DHT22;73666;51.304;5.776;2023-10-31T23:39:33;11.10;80.00
83685;DHT22;73666;51.304;5.776;2023-10-31T23:44:33;11.10;80.00
83685;DHT22;73666;51.304;5.776;2023-10-31T23:49:35;11.10;80.10
83685;DHT22;73666;51.304;5.776;2023-10-31T23:54:35;11.10;80.10
83685;DHT22;73666;51.304;5.776;2023-10-31T23:59:36;11.10;80.20
